createdAt,value
2016-02-07T00:00:58.842Z,994.41
2016-02-07T00:01:58.909Z,994.36
2016-02-07T00:02:58.958Z,994.3
2016-02-07T00:03:59.007Z,994.33
2016-02-07T00:04:59.057Z,994.33
2016-02-07T00:05:59.107Z,994.28
2016-02-07T00:06:59.172Z,994.26
2016-02-07T00:07:59.221Z,994.23
2016-02-07T00:08:59.273Z,994.19
2016-02-07T00:09:59.322Z,994.19
2016-02-07T00:10:59.372Z,994.2
2016-02-07T00:11:59.437Z,994.17
2016-02-07T00:12:59.486Z,994.13
2016-02-07T00:13:59.537Z,994.08
2016-02-07T00:14:59.586Z,994.15
2016-02-07T00:15:59.636Z,994.07
2016-02-07T00:16:59.690Z,994.06
2016-02-07T00:17:59.739Z,994.08
2016-02-07T00:18:59.804Z,994.09
2016-02-07T00:19:59.854Z,994.07
2016-02-07T00:20:59.903Z,994.1
2016-02-07T00:21:59.955Z,994.06
2016-02-07T00:23:00.005Z,994.08
2016-02-07T00:24:00.069Z,994.05
2016-02-07T00:25:00.121Z,994.05
2016-02-07T00:26:00.172Z,994.08
2016-02-07T00:27:00.221Z,994.06
2016-02-07T00:28:00.271Z,994.06
2016-02-07T00:29:00.336Z,994.05
2016-02-07T00:30:00.386Z,994.08
2016-02-07T00:31:00.425Z,994.09
2016-02-07T00:32:00.491Z,994.07
2016-02-07T00:33:00.540Z,994.04
2016-02-07T00:34:00.590Z,994.04
2016-02-07T00:35:00.641Z,993.99
2016-02-07T00:36:00.691Z,993.99
2016-02-07T00:37:00.756Z,994.01
2016-02-07T00:38:00.805Z,994
2016-02-07T00:39:00.855Z,993.95
2016-02-07T00:40:00.907Z,993.97
2016-02-07T00:41:00.956Z,993.99
2016-02-07T00:42:01.021Z,993.92
2016-02-07T00:43:01.073Z,993.89
2016-02-07T00:44:01.122Z,993.93
2016-02-07T00:45:01.172Z,993.96
2016-02-07T00:46:01.222Z,993.86
2016-02-07T00:47:01.286Z,993.88
2016-02-07T00:48:01.336Z,993.83
2016-02-07T00:49:01.386Z,993.85
2016-02-07T00:50:01.435Z,993.81
2016-02-07T00:51:01.484Z,993.78
2016-02-07T00:52:01.550Z,993.77
2016-02-07T00:53:01.599Z,993.75
2016-02-07T00:54:01.654Z,993.76
2016-02-07T00:55:01.703Z,993.69
2016-02-07T00:56:01.768Z,993.66
2016-02-07T00:57:01.818Z,993.68
2016-02-07T00:58:01.867Z,993.65
2016-02-07T00:59:01.917Z,993.67
2016-02-07T01:00:01.967Z,993.6
2016-02-07T01:01:02.017Z,993.56
2016-02-07T01:02:02.082Z,993.55
2016-02-07T01:03:02.131Z,993.59
2016-02-07T01:04:02.182Z,993.62
2016-02-07T01:05:02.232Z,993.6
2016-02-07T01:06:02.282Z,993.52
2016-02-07T01:07:02.346Z,993.54
2016-02-07T01:08:02.396Z,993.52
2016-02-07T01:09:02.449Z,993.54
2016-02-07T01:10:02.514Z,993.49
2016-02-07T01:11:02.549Z,993.48
2016-02-07T01:12:02.599Z,993.51
2016-02-07T01:13:02.664Z,993.5
2016-02-07T01:14:02.713Z,993.49
2016-02-07T01:15:02.763Z,993.52
2016-02-07T01:16:02.812Z,993.5
2016-02-07T01:17:02.864Z,993.51
2016-02-07T01:18:02.929Z,993.47
2016-02-07T01:19:02.978Z,993.42
2016-02-07T01:20:03.028Z,993.43
2016-02-07T01:21:03.078Z,993.43
2016-02-07T01:22:03.143Z,993.43
2016-02-07T01:23:03.177Z,993.36
2016-02-07T01:24:03.243Z,993.36
2016-02-07T01:25:03.293Z,993.34
2016-02-07T01:26:03.342Z,993.35
2016-02-07T01:27:03.391Z,993.33
2016-02-07T01:28:03.456Z,993.27
2016-02-07T01:29:03.507Z,993.34
2016-02-07T01:30:03.572Z,993.31
2016-02-07T01:31:03.607Z,993.26
2016-02-07T01:32:03.655Z,993.27
2016-02-07T01:33:03.721Z,993.25
2016-02-07T01:34:03.770Z,993.23
2016-02-07T01:35:03.821Z,993.18
2016-02-07T01:36:03.870Z,993.13
2016-02-07T01:37:03.935Z,993.11
2016-02-07T01:38:03.988Z,993.13
2016-02-07T01:39:04.038Z,993.13
2016-02-07T01:40:04.088Z,993.13
2016-02-07T01:41:04.138Z,993.14
2016-02-07T01:42:04.202Z,993.13
2016-02-07T01:43:04.252Z,993.07
2016-02-07T01:44:04.301Z,993.06
2016-02-07T01:45:04.351Z,993.02
2016-02-07T01:46:04.401Z,993.04
2016-02-07T01:47:04.465Z,993.03
2016-02-07T01:48:04.515Z,993.01
2016-02-07T01:49:04.565Z,992.98
2016-02-07T01:50:04.615Z,992.96
2016-02-07T01:51:04.680Z,992.95
2016-02-07T01:52:04.730Z,992.94
2016-02-07T01:53:04.780Z,992.92
2016-02-07T01:54:04.830Z,992.89
2016-02-07T01:55:04.879Z,992.87
2016-02-07T01:56:04.930Z,992.88
2016-02-07T01:57:04.979Z,992.88
2016-02-07T01:58:05.045Z,992.87
2016-02-07T01:59:05.096Z,992.87
2016-02-07T02:00:05.146Z,992.87
2016-02-07T02:01:05.194Z,992.83
2016-02-07T02:02:05.260Z,992.84
2016-02-07T02:03:05.302Z,992.84
2016-02-07T02:04:05.339Z,992.83
2016-02-07T02:05:05.374Z,992.83
2016-02-07T02:06:05.407Z,992.79
2016-02-07T02:07:05.442Z,992.76
2016-02-07T02:08:05.498Z,992.76
2016-02-07T02:09:05.543Z,992.76
2016-02-07T02:10:05.587Z,992.73
2016-02-07T02:11:05.630Z,992.71
2016-02-07T02:12:05.674Z,992.62
2016-02-07T02:13:05.736Z,992.56
2016-02-07T02:14:05.785Z,992.57
2016-02-07T02:15:05.832Z,992.53
2016-02-07T02:16:05.879Z,992.45
2016-02-07T02:17:05.943Z,992.42
2016-02-07T02:18:05.991Z,992.41
2016-02-07T02:19:06.055Z,992.44
2016-02-07T02:20:06.089Z,992.49
2016-02-07T02:21:06.153Z,992.42
2016-02-07T02:22:06.204Z,992.49
2016-02-07T02:23:06.254Z,992.5
2016-02-07T02:24:06.302Z,992.49
2016-02-07T02:25:06.354Z,992.44
2016-02-07T02:26:06.404Z,992.44
2016-02-07T02:27:06.486Z,992.48
2016-02-07T02:28:06.508Z,992.47
2016-02-07T02:29:06.658Z,992.46
2016-02-07T02:30:06.692Z,992.43
2016-02-07T02:31:06.663Z,992.46
2016-02-07T02:32:06.712Z,992.44
2016-02-07T02:33:06.779Z,992.42
2016-02-07T02:34:06.828Z,992.44
2016-02-07T02:35:06.877Z,992.42
2016-02-07T02:36:06.926Z,992.36
2016-02-07T02:37:06.976Z,992.35
2016-02-07T02:38:07.026Z,992.35
2016-02-07T02:39:07.076Z,992.32
2016-02-07T02:40:07.140Z,992.41
2016-02-07T02:41:07.190Z,992.34
2016-02-07T02:42:07.239Z,992.34
2016-02-07T02:43:07.295Z,992.35
2016-02-07T02:44:07.344Z,992.35
2016-02-07T02:45:07.441Z,992.28
2016-02-07T02:46:07.662Z,992.23
2016-02-07T02:47:07.509Z,992.23
2016-02-07T02:48:07.559Z,992.19
2016-02-07T02:49:07.609Z,992.18
2016-02-07T02:50:07.658Z,992.12
2016-02-07T02:51:07.724Z,992.13
2016-02-07T02:52:07.774Z,992.17
2016-02-07T02:53:07.836Z,992.11
2016-02-07T02:54:07.885Z,992.14
2016-02-07T02:55:07.934Z,992.12
2016-02-07T02:56:07.983Z,992.1
2016-02-07T02:57:08.032Z,992.06
2016-02-07T02:58:08.083Z,992.07
2016-02-07T02:59:08.134Z,992.12
2016-02-07T03:00:08.199Z,992.04
2016-02-07T03:01:08.248Z,992.04
2016-02-07T03:02:08.315Z,992.05
2016-02-07T03:03:08.348Z,992.01
2016-02-07T03:04:08.398Z,992.05
2016-02-07T03:05:08.453Z,992.05
2016-02-07T03:06:08.518Z,992.03
2016-02-07T03:07:08.567Z,992.02
2016-02-07T03:08:08.618Z,992.04
2016-02-07T03:09:08.667Z,991.98
2016-02-07T03:10:08.732Z,991.96
2016-02-07T03:11:08.781Z,991.92
2016-02-07T03:12:08.834Z,991.9
2016-02-07T03:13:08.884Z,991.9
2016-02-07T03:14:08.934Z,991.94
2016-02-07T03:15:08.983Z,991.96
2016-02-07T03:16:09.048Z,991.92
2016-02-07T03:17:09.097Z,991.88
2016-02-07T03:18:09.148Z,991.98
2016-02-07T03:19:09.197Z,991.87
2016-02-07T03:20:09.247Z,991.84
2016-02-07T03:21:09.315Z,991.81
2016-02-07T03:22:09.365Z,991.79
2016-02-07T03:23:09.415Z,991.78
2016-02-07T03:24:09.464Z,991.73
2016-02-07T03:25:09.513Z,991.71
2016-02-07T03:26:09.579Z,991.76
2016-02-07T03:27:09.628Z,991.75
2016-02-07T03:28:09.678Z,991.71
2016-02-07T03:29:09.728Z,991.71
2016-02-07T03:30:09.776Z,991.7
2016-02-07T03:31:09.842Z,991.65
2016-02-07T03:32:09.892Z,991.67
2016-02-07T03:33:09.945Z,991.71
2016-02-07T03:34:09.993Z,991.65
2016-02-07T03:35:10.059Z,991.61
2016-02-07T03:36:10.108Z,991.57
2016-02-07T03:37:10.159Z,991.62
2016-02-07T03:38:10.223Z,991.64
2016-02-07T03:39:10.257Z,991.65
2016-02-07T03:40:10.322Z,991.63
2016-02-07T03:41:10.357Z,991.64
2016-02-07T03:42:10.423Z,991.57
2016-02-07T03:43:10.473Z,991.59
2016-02-07T03:44:10.521Z,991.53
2016-02-07T03:45:10.571Z,991.57
2016-02-07T03:46:10.637Z,991.53
2016-02-07T03:47:10.688Z,991.56
2016-02-07T03:48:10.737Z,991.58
2016-02-07T03:49:10.802Z,991.53
2016-02-07T03:50:10.837Z,991.58
2016-02-07T03:51:10.903Z,991.57
2016-02-07T03:52:10.953Z,991.6
2016-02-07T03:53:11.002Z,991.57
2016-02-07T03:54:11.051Z,991.59
2016-02-07T03:55:11.101Z,991.54
2016-02-07T03:56:11.166Z,991.53
2016-02-07T03:57:11.216Z,991.49
2016-02-07T03:58:11.281Z,991.48
2016-02-07T03:59:11.331Z,991.52
2016-02-07T04:00:11.381Z,991.48
2016-02-07T04:01:11.432Z,991.47
2016-02-07T04:02:11.467Z,991.46
2016-02-07T04:03:11.531Z,991.51
2016-02-07T04:04:11.581Z,991.48
2016-02-07T04:05:11.630Z,991.53
2016-02-07T04:06:11.681Z,991.5
2016-02-07T04:07:11.747Z,991.43
2016-02-07T04:08:11.795Z,991.46
2016-02-07T04:09:11.844Z,991.44
2016-02-07T04:10:11.894Z,991.39
2016-02-07T04:11:11.960Z,991.35
2016-02-07T04:12:12.010Z,991.35
2016-02-07T04:13:12.058Z,991.3
2016-02-07T04:14:12.108Z,991.32
2016-02-07T04:15:12.173Z,991.31
2016-02-07T04:16:12.224Z,991.21
2016-02-07T04:17:12.273Z,991.25
2016-02-07T04:18:12.321Z,991.19
2016-02-07T04:19:12.387Z,991.14
2016-02-07T04:20:12.421Z,991.06
2016-02-07T04:21:12.487Z,991.03
2016-02-07T04:22:12.537Z,991.07
2016-02-07T04:23:12.585Z,991.02
2016-02-07T04:24:12.651Z,991.01
2016-02-07T04:25:12.700Z,991.01
2016-02-07T04:26:12.751Z,991.01
2016-02-07T04:27:12.800Z,991
2016-02-07T04:28:12.849Z,991
2016-02-07T04:29:12.898Z,991.01
2016-02-07T04:30:12.964Z,991.03
2016-02-07T04:31:13.014Z,991.05
2016-02-07T04:32:13.063Z,991.07
2016-02-07T04:33:13.112Z,991.08
2016-02-07T04:34:13.162Z,991.1
2016-02-07T04:35:13.227Z,991.11
2016-02-07T04:36:13.283Z,991.08
2016-02-07T04:37:13.331Z,991.06
2016-02-07T04:38:13.380Z,991.1
2016-02-07T04:39:13.430Z,991.04
2016-02-07T04:40:13.480Z,991.06
2016-02-07T04:41:13.536Z,991.07
2016-02-07T04:42:13.601Z,991.14
2016-02-07T04:43:13.635Z,991.08
2016-02-07T04:44:13.700Z,991.1
2016-02-07T04:45:13.750Z,991.1
2016-02-07T04:46:13.799Z,991.11
2016-02-07T04:47:13.855Z,991.1
2016-02-07T04:48:13.903Z,991.05
2016-02-07T04:49:13.953Z,990.99
2016-02-07T04:50:14.019Z,991.04
2016-02-07T04:51:14.069Z,991.09
2016-02-07T04:52:14.118Z,991.06
2016-02-07T04:53:14.183Z,991.04
2016-02-07T04:54:14.216Z,991.01
2016-02-07T04:55:14.282Z,991
2016-02-07T04:56:14.347Z,990.99
2016-02-07T04:57:14.384Z,990.93
2016-02-07T04:58:14.433Z,990.92
2016-02-07T04:59:14.483Z,990.89
2016-02-07T05:00:14.549Z,990.96
2016-02-07T05:01:14.598Z,990.88
2016-02-07T05:02:14.648Z,990.85
2016-02-07T05:03:14.698Z,990.85
2016-02-07T05:04:14.763Z,990.8
2016-02-07T05:05:14.813Z,990.77
2016-02-07T05:06:14.863Z,990.77
2016-02-07T05:07:14.912Z,990.74
2016-02-07T05:08:14.962Z,990.74
2016-02-07T05:09:15.012Z,990.78
2016-02-07T05:10:15.079Z,990.72
2016-02-07T05:11:15.129Z,990.69
2016-02-07T05:12:15.177Z,990.69
2016-02-07T05:13:15.226Z,990.7
2016-02-07T05:14:15.276Z,990.66
2016-02-07T05:15:15.345Z,990.66
2016-02-07T05:16:15.394Z,990.63
2016-02-07T05:17:15.436Z,990.64
2016-02-07T05:18:15.502Z,990.68
2016-02-07T05:19:15.552Z,990.64
2016-02-07T05:20:15.602Z,990.61
2016-02-07T05:21:15.651Z,990.56
2016-02-07T05:22:15.700Z,990.58
2016-02-07T05:23:15.766Z,990.57
2016-02-07T05:24:15.817Z,990.55
2016-02-07T05:25:15.866Z,990.56
2016-02-07T05:26:15.931Z,990.55
2016-02-07T05:27:15.980Z,990.63
2016-02-07T05:28:16.030Z,990.64
2016-02-07T05:29:16.079Z,990.63
2016-02-07T05:30:16.130Z,990.57
2016-02-07T05:31:16.210Z,990.6
2016-02-07T05:32:16.228Z,990.57
2016-02-07T05:33:16.294Z,990.62
2016-02-07T05:34:16.343Z,990.55
2016-02-07T05:35:16.393Z,990.6
2016-02-07T05:36:16.444Z,990.54
2016-02-07T05:37:16.492Z,990.57
2016-02-07T05:38:16.558Z,990.55
2016-02-07T05:39:16.607Z,990.51
2016-02-07T05:40:16.657Z,990.54
2016-02-07T05:41:16.707Z,990.48
2016-02-07T05:42:16.760Z,990.49
2016-02-07T05:43:16.810Z,990.47
2016-02-07T05:44:16.878Z,990.47
2016-02-07T05:45:16.927Z,990.49
2016-02-07T05:46:16.976Z,990.47
2016-02-07T05:47:17.026Z,990.5
2016-02-07T05:48:17.075Z,990.44
2016-02-07T05:49:17.144Z,990.48
2016-02-07T05:50:17.193Z,990.51
2016-02-07T05:51:17.242Z,990.44
2016-02-07T05:52:17.291Z,990.46
2016-02-07T05:53:17.342Z,990.48
2016-02-07T05:54:17.407Z,990.48
2016-02-07T05:55:17.456Z,990.48
2016-02-07T05:56:17.505Z,990.43
2016-02-07T05:57:17.556Z,990.45
2016-02-07T05:58:17.622Z,990.45
2016-02-07T05:59:17.672Z,990.45
2016-02-07T06:00:17.720Z,990.46
2016-02-07T06:01:17.770Z,990.42
2016-02-07T06:02:17.819Z,990.38
2016-02-07T06:03:17.871Z,990.44
2016-02-07T06:04:17.920Z,990.43
2016-02-07T06:05:17.985Z,990.47
2016-02-07T06:06:18.034Z,990.48
2016-02-07T06:07:18.089Z,990.54
2016-02-07T06:08:18.139Z,990.54
2016-02-07T06:09:18.204Z,990.47
2016-02-07T06:10:18.242Z,990.53
2016-02-07T06:11:18.291Z,990.53
2016-02-07T06:12:18.356Z,990.54
2016-02-07T06:13:18.406Z,990.48
2016-02-07T06:14:18.456Z,990.53
2016-02-07T06:15:18.507Z,990.47
2016-02-07T06:16:18.571Z,990.51
2016-02-07T06:17:18.621Z,990.56
2016-02-07T06:18:18.670Z,990.6
2016-02-07T06:19:18.720Z,990.56
2016-02-07T06:20:18.770Z,990.58
2016-02-07T06:21:18.835Z,990.62
2016-02-07T06:22:18.884Z,990.62
2016-02-07T06:23:18.934Z,990.65
2016-02-07T06:24:18.984Z,990.66
2016-02-07T06:25:19.033Z,990.67
2016-02-07T06:26:19.082Z,990.7
2016-02-07T06:27:19.148Z,990.67
2016-02-07T06:28:19.198Z,990.71
2016-02-07T06:29:19.262Z,990.67
2016-02-07T06:30:19.297Z,990.65
2016-02-07T06:31:19.362Z,990.69
2016-02-07T06:32:19.412Z,990.62
2016-02-07T06:33:19.462Z,990.7
2016-02-07T06:34:19.512Z,990.71
2016-02-07T06:35:19.561Z,990.69
2016-02-07T06:36:19.610Z,990.63
2016-02-07T06:37:19.677Z,990.64
2016-02-07T06:38:19.727Z,990.7
2016-02-07T06:39:19.792Z,990.69
2016-02-07T06:40:19.827Z,990.68
2016-02-07T06:41:19.875Z,990.74
2016-02-07T06:42:19.941Z,990.73
2016-02-07T06:43:19.992Z,990.71
2016-02-07T06:44:20.042Z,990.69
2016-02-07T06:45:20.091Z,990.73
2016-02-07T06:46:20.157Z,990.73
2016-02-07T06:47:20.206Z,990.82
2016-02-07T06:48:20.256Z,990.79
2016-02-07T06:49:20.306Z,990.7
2016-02-07T06:50:20.356Z,990.73
2016-02-07T06:51:20.421Z,990.71
2016-02-07T06:52:20.472Z,990.69
2016-02-07T06:53:20.522Z,990.74
2016-02-07T06:54:20.571Z,990.72
2016-02-07T06:55:20.636Z,990.65
2016-02-07T06:56:20.670Z,990.69
2016-02-07T06:57:20.719Z,990.65
2016-02-07T06:58:20.786Z,990.67
2016-02-07T06:59:20.836Z,990.63
2016-02-07T07:00:20.884Z,990.59
2016-02-07T07:01:20.950Z,990.64
2016-02-07T07:02:20.984Z,990.66
2016-02-07T07:03:21.050Z,990.59
2016-02-07T07:04:21.103Z,990.65
2016-02-07T07:05:21.153Z,990.55
2016-02-07T07:06:21.204Z,990.63
2016-02-07T07:07:21.270Z,990.6
2016-02-07T07:08:21.318Z,990.53
2016-02-07T07:09:21.368Z,990.53
2016-02-07T07:10:21.418Z,990.56
2016-02-07T07:11:21.469Z,990.58
2016-02-07T07:12:21.518Z,990.56
2016-02-07T07:13:21.583Z,990.5
2016-02-07T07:14:21.632Z,990.6
2016-02-07T07:15:21.688Z,990.52
2016-02-07T07:16:21.737Z,990.5
2016-02-07T07:17:21.787Z,990.53
2016-02-07T07:18:21.837Z,990.5
2016-02-07T07:19:21.890Z,990.47
2016-02-07T07:20:21.954Z,990.52
2016-02-07T07:21:22.004Z,990.47
2016-02-07T07:22:22.053Z,990.52
2016-02-07T07:23:22.103Z,990.48
2016-02-07T07:24:22.156Z,990.5
2016-02-07T07:25:22.206Z,990.51
2016-02-07T07:26:22.271Z,990.48
2016-02-07T07:27:22.323Z,990.53
2016-02-07T07:28:22.449Z,990.49
2016-02-07T07:29:22.421Z,990.52
2016-02-07T07:30:22.470Z,990.48
2016-02-07T07:31:22.520Z,990.43
2016-02-07T07:32:22.574Z,990.46
2016-02-07T07:33:22.624Z,990.46
2016-02-07T07:34:22.688Z,990.54
2016-02-07T07:35:22.737Z,990.47
2016-02-07T07:36:22.788Z,990.44
2016-02-07T07:37:22.837Z,990.45
2016-02-07T07:38:22.902Z,990.43
2016-02-07T07:39:22.952Z,990.4
2016-02-07T07:40:23.002Z,990.44
2016-02-07T07:41:23.052Z,990.44
2016-02-07T07:42:23.102Z,990.4
2016-02-07T07:43:23.166Z,990.41
2016-02-07T07:44:23.216Z,990.43
2016-02-07T07:45:23.271Z,990.36
2016-02-07T07:46:23.321Z,990.42
2016-02-07T07:47:23.378Z,990.45
2016-02-07T07:48:23.427Z,990.43
2016-02-07T07:49:23.477Z,990.48
2016-02-07T07:50:23.526Z,990.42
2016-02-07T07:51:23.576Z,990.4
2016-02-07T07:52:23.642Z,990.46
2016-02-07T07:53:23.691Z,990.46
2016-02-07T07:54:23.741Z,990.46
2016-02-07T07:55:23.790Z,990.53
2016-02-07T07:56:23.857Z,990.51
2016-02-07T07:57:23.890Z,990.53
2016-02-07T07:58:23.954Z,990.48
2016-02-07T07:59:24.004Z,990.54
2016-02-07T08:00:24.054Z,990.51
2016-02-07T08:01:24.105Z,990.55
2016-02-07T08:02:24.171Z,990.57
2016-02-07T08:03:24.219Z,990.54
2016-02-07T08:04:24.269Z,990.58
2016-02-07T08:05:24.318Z,990.61
2016-02-07T08:06:24.370Z,990.48
2016-02-07T08:07:24.419Z,990.58
2016-02-07T08:08:24.483Z,990.55
2016-02-07T08:09:24.533Z,990.56
2016-02-07T08:10:24.582Z,990.61
2016-02-07T08:11:24.633Z,990.62
2016-02-07T08:12:24.699Z,990.58
2016-02-07T08:13:24.747Z,990.56
2016-02-07T08:14:24.801Z,990.56
2016-02-07T08:15:24.851Z,990.52
2016-02-07T08:16:24.918Z,990.55
2016-02-07T08:17:24.952Z,990.49
2016-02-07T08:18:25.001Z,990.57
2016-02-07T08:19:25.068Z,990.56
2016-02-07T08:20:25.118Z,990.51
2016-02-07T08:21:25.168Z,990.49
2016-02-07T08:22:25.217Z,990.56
2016-02-07T08:23:25.267Z,990.52
2016-02-07T08:24:25.331Z,990.54
2016-02-07T08:25:25.382Z,990.59
2016-02-07T08:26:25.431Z,990.57
2016-02-07T08:27:25.484Z,990.59
2016-02-07T08:28:25.533Z,990.62
2016-02-07T08:29:25.582Z,990.63
2016-02-07T08:30:25.647Z,990.61
2016-02-07T08:31:25.698Z,990.62
2016-02-07T08:32:25.748Z,990.66
2016-02-07T08:33:25.797Z,990.69
2016-02-07T08:34:25.862Z,990.75
2016-02-07T08:35:25.913Z,990.75
2016-02-07T08:36:25.963Z,990.78
2016-02-07T08:37:26.013Z,990.79
2016-02-07T08:38:26.077Z,990.91
2016-02-07T08:39:26.127Z,990.81
2016-02-07T08:40:26.163Z,990.85
2016-02-07T08:41:26.230Z,990.83
2016-02-07T08:42:26.279Z,990.72
2016-02-07T08:43:26.327Z,990.81
2016-02-07T08:44:26.377Z,990.95
2016-02-07T08:45:26.443Z,990.85
2016-02-07T08:46:26.485Z,990.92
2016-02-07T08:47:26.550Z,990.94
2016-02-07T08:48:26.599Z,990.91
2016-02-07T08:49:26.649Z,990.92
2016-02-07T08:50:26.699Z,990.97
2016-02-07T08:51:26.748Z,990.94
2016-02-07T08:52:26.798Z,990.88
2016-02-07T08:53:26.864Z,990.91
2016-02-07T08:54:26.913Z,990.9
2016-02-07T08:55:26.963Z,991
2016-02-07T08:56:27.017Z,990.93
2016-02-07T08:57:27.066Z,990.95
2016-02-07T08:58:27.115Z,990.94
2016-02-07T08:59:27.180Z,990.97
2016-02-07T09:00:27.230Z,990.94
2016-02-07T09:01:27.278Z,991.02
2016-02-07T09:02:27.328Z,990.88
2016-02-07T09:03:27.378Z,990.96
2016-02-07T09:04:27.443Z,990.94
2016-02-07T09:05:27.492Z,991.03
2016-02-07T09:06:27.542Z,991.07
2016-02-07T09:07:27.606Z,991.12
2016-02-07T09:08:27.656Z,991.28
2016-02-07T09:09:27.705Z,991.39
2016-02-07T09:10:27.756Z,991.69
2016-02-07T09:11:27.805Z,991.7
2016-02-07T09:12:27.855Z,991.67
2016-02-07T09:13:27.919Z,991.63
2016-02-07T09:14:27.956Z,991.68
2016-02-07T09:15:28.022Z,991.73
2016-02-07T09:16:28.087Z,991.73
2016-02-07T09:17:28.121Z,991.75
2016-02-07T09:18:28.188Z,991.71
2016-02-07T09:19:28.237Z,991.72
2016-02-07T09:20:28.277Z,991.75
2016-02-07T09:21:28.342Z,991.78
2016-02-07T09:22:28.393Z,991.82
2016-02-07T09:23:28.442Z,991.88
2016-02-07T09:24:28.492Z,991.89
2016-02-07T09:25:28.558Z,991.87
2016-02-07T09:26:28.592Z,991.87
2016-02-07T09:27:28.656Z,991.88
2016-02-07T09:28:28.710Z,991.93
2016-02-07T09:29:28.760Z,991.93
2016-02-07T09:30:28.809Z,991.99
2016-02-07T09:31:28.859Z,991.99
2016-02-07T09:32:28.924Z,992.03
2016-02-07T09:33:28.977Z,992.02
2016-02-07T09:34:29.027Z,992.03
2016-02-07T09:35:29.077Z,992.03
2016-02-07T09:36:29.131Z,992.06
2016-02-07T09:37:29.179Z,992
2016-02-07T09:38:29.228Z,991.99
2016-02-07T09:39:29.294Z,992.1
2016-02-07T09:40:29.345Z,992.07
2016-02-07T09:41:29.394Z,992.06
2016-02-07T09:42:29.442Z,992.09
2016-02-07T09:43:29.509Z,992.09
2016-02-07T09:44:29.558Z,992.22
2016-02-07T09:45:29.609Z,992.12
2016-02-07T09:46:29.658Z,992.22
2016-02-07T09:47:29.707Z,992.19
2016-02-07T09:48:29.759Z,992.22
2016-02-07T09:49:29.826Z,992.18
2016-02-07T09:50:29.875Z,992.17
2016-02-07T09:51:29.924Z,992.16
2016-02-07T09:52:29.973Z,992.14
2016-02-07T09:53:30.023Z,992.18
2016-02-07T09:54:30.088Z,992.21
2016-02-07T09:55:30.138Z,992.28
2016-02-07T09:56:30.187Z,992.27
2016-02-07T09:57:30.238Z,992.31
2016-02-07T09:58:30.288Z,992.3
2016-02-07T09:59:30.338Z,992.36
2016-02-07T10:00:30.403Z,992.36
2016-02-07T10:01:30.451Z,992.38
2016-02-07T10:02:30.503Z,992.36
2016-02-07T10:03:30.552Z,992.42
2016-02-07T10:04:30.603Z,992.43
2016-02-07T10:05:30.669Z,992.41
2016-02-07T10:06:30.717Z,992.43
2016-02-07T10:07:30.766Z,992.41
2016-02-07T10:08:30.816Z,992.41
2016-02-07T10:09:30.882Z,992.42
2016-02-07T10:10:30.917Z,992.45
2016-02-07T10:11:30.981Z,992.44
2016-02-07T10:12:31.031Z,992.45
2016-02-07T10:13:31.080Z,992.46
2016-02-07T10:14:31.147Z,992.46
2016-02-07T10:15:31.196Z,992.51
2016-02-07T10:16:31.245Z,992.48
2016-02-07T10:17:31.294Z,992.53
2016-02-07T10:18:31.346Z,992.53
2016-02-07T10:19:31.418Z,992.54
2016-02-07T10:20:31.454Z,992.54
2016-02-07T10:21:31.504Z,992.57
2016-02-07T10:22:31.568Z,992.52
2016-02-07T10:23:31.605Z,992.55
2016-02-07T10:24:31.671Z,992.61
2016-02-07T10:25:31.721Z,992.58
2016-02-07T10:26:31.770Z,992.58
2016-02-07T10:27:31.819Z,992.6
2016-02-07T10:28:31.870Z,992.57
2016-02-07T10:29:31.936Z,992.63
2016-02-07T10:30:32.031Z,992.59
2016-02-07T10:31:32.035Z,992.69
2016-02-07T10:32:32.085Z,992.71
2016-02-07T10:33:32.134Z,992.68
2016-02-07T10:34:32.201Z,992.7
2016-02-07T10:35:32.265Z,992.69
2016-02-07T10:36:32.299Z,992.71
2016-02-07T10:37:32.349Z,992.65
2016-02-07T10:38:32.400Z,992.61
2016-02-07T10:39:32.453Z,992.61
2016-02-07T10:40:32.518Z,992.67
2016-02-07T10:41:32.567Z,992.64
2016-02-07T10:42:32.632Z,992.67
2016-02-07T10:43:32.667Z,992.64
2016-02-07T10:44:32.717Z,992.64
2016-02-07T10:45:32.782Z,992.62
2016-02-07T10:46:32.832Z,992.68
2016-02-07T10:47:32.881Z,992.63
2016-02-07T10:48:32.931Z,992.62
2016-02-07T10:49:32.997Z,992.6
2016-02-07T10:50:33.033Z,992.69
2016-02-07T10:51:33.098Z,992.66
2016-02-07T10:52:33.151Z,992.72
2016-02-07T10:53:33.200Z,992.71
2016-02-07T10:54:33.250Z,992.63
2016-02-07T10:55:33.300Z,992.74
2016-02-07T10:56:33.364Z,992.63
2016-02-07T10:57:33.415Z,992.62
2016-02-07T10:58:33.464Z,992.69
2016-02-07T10:59:33.515Z,992.63
2016-02-07T11:00:33.579Z,992.65
2016-02-07T11:01:33.613Z,992.7
2016-02-07T11:02:33.678Z,992.68
2016-02-07T11:03:33.728Z,992.71
2016-02-07T11:04:33.778Z,992.68
2016-02-07T11:05:33.829Z,992.64
2016-02-07T11:06:33.877Z,992.75
2016-02-07T11:07:33.927Z,992.76
2016-02-07T11:08:33.976Z,992.78
2016-02-07T11:09:34.032Z,992.79
2016-02-07T11:10:34.070Z,992.73
2016-02-07T11:11:34.106Z,992.75
2016-02-07T11:12:34.142Z,992.76
2016-02-07T11:13:34.180Z,992.85
2016-02-07T11:14:34.241Z,992.86
2016-02-07T11:15:34.286Z,992.85
2016-02-07T11:16:34.330Z,992.94
2016-02-07T11:17:34.375Z,992.82
2016-02-07T11:18:34.423Z,992.74
2016-02-07T11:19:34.487Z,992.75
2016-02-07T11:20:34.522Z,992.79
2016-02-07T11:21:34.586Z,992.76
2016-02-07T11:22:34.618Z,992.87
2016-02-07T11:23:34.683Z,992.76
2016-02-07T11:24:34.731Z,992.79
2016-02-07T11:25:34.780Z,992.81
2016-02-07T11:26:34.830Z,992.89
2016-02-07T11:27:34.894Z,992.72
2016-02-07T11:28:34.942Z,992.77
2016-02-07T11:29:34.992Z,992.8
2016-02-07T11:30:35.042Z,992.7
2016-02-07T11:31:35.091Z,992.89
2016-02-07T11:32:35.139Z,992.81
2016-02-07T11:33:35.204Z,992.79
2016-02-07T11:34:35.255Z,992.79
2016-02-07T11:35:35.305Z,992.73
2016-02-07T11:36:35.354Z,992.76
2016-02-07T11:37:35.403Z,992.79
2016-02-07T11:38:35.468Z,992.74
2016-02-07T11:39:35.520Z,992.79
2016-02-07T11:40:35.570Z,992.86
2016-02-07T11:41:35.619Z,992.79
2016-02-07T11:42:35.668Z,992.94
2016-02-07T11:43:35.718Z,992.77
2016-02-07T11:44:35.783Z,992.8
2016-02-07T11:45:35.834Z,992.76
2016-02-07T11:46:35.883Z,992.78
2016-02-07T11:47:35.932Z,992.86
2016-02-07T11:48:35.981Z,992.76
2016-02-07T11:49:36.047Z,992.8
2016-02-07T11:50:36.097Z,992.82
2016-02-07T11:51:36.146Z,992.94
2016-02-07T11:52:36.196Z,992.96
2016-02-07T11:53:36.263Z,993.01
2016-02-07T11:54:36.313Z,992.96
2016-02-07T11:55:36.362Z,993.02
2016-02-07T11:56:36.411Z,992.98
2016-02-07T11:57:36.460Z,993.07
2016-02-07T11:58:36.526Z,992.94
2016-02-07T11:59:36.577Z,992.94
2016-02-07T12:00:36.626Z,992.98
2016-02-07T12:01:36.675Z,992.97
2016-02-07T12:02:36.725Z,992.95
2016-02-07T12:03:36.790Z,992.92
2016-02-07T12:04:36.841Z,992.97
2016-02-07T12:05:36.890Z,992.97
2016-02-07T12:06:36.944Z,992.92
2016-02-07T12:07:36.993Z,992.94
2016-02-07T12:08:37.044Z,992.98
2016-02-07T12:09:37.109Z,993
2016-02-07T12:10:37.157Z,992.98
2016-02-07T12:11:37.207Z,992.97
2016-02-07T12:12:37.257Z,992.88
2016-02-07T12:13:37.307Z,992.91
2016-02-07T12:14:37.374Z,992.93
2016-02-07T12:15:37.422Z,992.93
2016-02-07T12:16:37.472Z,992.94
2016-02-07T12:17:37.521Z,992.93
2016-02-07T12:18:37.588Z,992.97
2016-02-07T12:19:37.637Z,993.02
2016-02-07T12:20:37.685Z,993.03
2016-02-07T12:21:37.735Z,993.09
2016-02-07T12:22:37.785Z,993.1
2016-02-07T12:23:37.847Z,993.12
2016-02-07T12:24:37.898Z,993.22
2016-02-07T12:25:37.947Z,993.21
2016-02-07T12:26:38.013Z,993.22
2016-02-07T12:27:38.063Z,993.25
2016-02-07T12:28:38.113Z,993.28
2016-02-07T12:29:38.178Z,993.25
2016-02-07T12:30:38.227Z,993.16
2016-02-07T12:31:38.277Z,993.29